Armada, Michigan
Current Conditions -  °F | °C
As of 5:58 AM on Saturday 25 Oct 2014 (Local Time) from KMTC Reporting Station
Broken Clouds Broken Clouds  
Wind Chill: 47°   Ceiling: 9000
Heat Index: 49°   Visibility: 8mi
Dew Point: 48°   Wind: 5mph
Humidity: 99%   Direction: 220°SW
Pressure: 29.84"   Gusts: NA
Location:  42.84°N, 82.88°W
Report Text: KMTC 250958Z AUTO 22004KT 8SM R01/5500FT BKN090 09/09 A2984 RMK AO2 SLP109 T00920091
Loading
Personal Weather Stations






























Interactive Weather Map New forecast layout! Learn more

10-Day Weather Forecast

Advertisements
Track Severe Weather on mobile